Surface observations / Quebec / CYHU

Quebec | Canada | USA | France | UK | Europe | Elsewhere

Display: Info & Location for CYHU | Help decoding METAR

YHU SAINT-HUBERT ARPT QB CN
Raw surface observations for station CYHU
CYHU 261700Z AUTO 23015G22KT 9SM OVC140 24/14 A2984 RMK MAX WND 22022KT AT 1658Z SLP104 DENSITY ALT 1200FT=
CYHU 261600Z AUTO 24015KT 9SM FEW039 SCT150 BKN170 24/14 A2984 RMK MAX WND 22020KT AT 1527Z SLP105 DENSITY ALT 1100FT=
CYHU 261500Z AUTO 24013G19KT 9SM SCT180 24/14 A2985 RMK MAX WND 24023KT AT 1403Z SLP109 DENSITY ALT 1100FT=
CYHU 261400Z AUTO 24014G20KT 9SM CLR 22/14 A2986 RMK MAX WND 23020KT AT 1356Z SLP111 DENSITY ALT 900FT=
CYHU 261300Z AUTO 23013KT 9SM BKN180 21/14 A2987 RMK MAX WND 23018KT AT 1247Z SLP115 DENSITY ALT 800FT=
CYHU 261200Z AUTO 23011KT 9SM SCT075 BKN190 19/13 A2988 RMK SLP116 DENSITY ALT 600FT=
CYHU 261100Z AUTO 19007KT 9SM FEW065 17/12 A2987 RMK SLP116 DENSITY ALT 400FT=
CYHU 261000Z AUTO 22010KT 9SM FEW060 17/13 A2987 RMK SLP114 DENSITY ALT 400FT=
CYHU 260900Z AUTO 21009KT 9SM FEW070 17/12 A2987 RMK SLP114 DENSITY ALT 400FT=
CYHU 260800Z AUTO 20007KT 9SM SCT065 17/12 A2987 RMK SLP114 DENSITY ALT 400FT=
CYHU 260700Z AUTO 20007KT 9SM FEW060 18/12 A2987 RMK SLP115 DENSITY ALT 400FT=
CYHU 260600Z AUTO 24011KT 9SM CLR 19/12 A2988 RMK MAX WND 24018KT AT 0525Z SLP118 DENSITY ALT 500FT=
CYHU 260500Z AUTO 25010KT 9SM CLR 19/12 A2989 RMK MAX WND 23019KT AT 0416Z SLP120 DENSITY ALT 600FT=
CYHU 260400Z AUTO 23010G16KT 9SM CLR 19/11 A2988 RMK MAX WND 23020KT AT 0308Z SLP119 DENSITY ALT 600FT=
CYHU 260300Z AUTO 23013G20KT 9SM CLR 20/11 A2988 RMK MAX WND 24025KT AT 0204Z SLP119 DENSITY ALT 700FT=
CYHU 260200Z AUTO 24016G22KT 9SM CLR 21/12 A2988 RMK MAX WND 25022KT AT 0159Z SLP118 DENSITY ALT 800FT=
CYHU 260100Z AUTO 23013G18KT 9SM CLR 22/12 A2987 RMK MAX WND 22022KT AT 0043Z SLP115 DENSITY ALT 900FT=
CYHU 260000Z AUTO 22012KT 9SM CLR 22/13 A2987 RMK MAX WND 24026KT AT 2320Z SLP113 DENSITY ALT 1000FT=
CYHU 252300Z AUTO 24019G27KT 9SM CLR 24/12 A2986 RMK MAX WND 24027KT AT 2256Z SLP111 DENSITY ALT 1100FT=
CYHU 252200Z AUTO 25019G25KT 9SM CLR 24/12 A2985 RMK MAX WND 25025KT AT 2200Z SLP109 DENSITY ALT 1200FT=
CYHU 252100Z AUTO 24019KT 9SM CLR 25/14 A2985 RMK MAX WND 23026KT AT 2008Z SLP109 DENSITY ALT 1300FT=
CYHU 252000Z AUTO 25016G25KT 9SM CLR 25/14 A2988 RMK MAX WND 24025KT AT 1953Z SLP116 DENSITY ALT 1300FT=
CYHU 251900Z AUTO 24019KT 9SM CLR 25/14 A2989 RMK MAX WND 24024KT AT 1840Z SLP122 DENSITY ALT 1200FT=
CYHU 251800Z AUTO 25017G22KT 9SM CLR 24/12 A2990 RMK MAX WND 24022KT AT 1759Z SLP126 DENSITY ALT 1200FT=
CYHU 251700Z AUTO 25017KT 9SM CLR 24/12 A2991 RMK MAX WND 26020KT AT 1659Z SLP130 DENSITY ALT 1100FT=